Terminal Aerodrome Forecast
Issued by NWS

Home | Current Version | Previous Version | Text Only | Print | Product List | Glossary Off
Versions: 1 2 3 4 5 6 7 8 9 10 11 12 13 14 15 16 17 18 19 20

000
FTUS43 KOAX 152300
TAFCDR
TAF
KCDR 152324Z 1600/1624 26014G20KT P6SM BKN200
     FM160200 23012KT P6SM VCSH OVC080
     FM160800 28015KT P6SM -SHRA SCT020 BKN040
     FM161500 35020G28KT P6SM -SHRA BKN025=

USA.gov is the U.S. government's official web portal to all federal, state and local government web resources and services.